Time;durP1;ratioP1;P1;durP2;ratioP2;P2;SDS_P1;SDS_P2;PMS_P1;PMS_P2;Temp;Humidity;BMP_temperature;BMP_pressure;BME280_temperature;BME280_humidity;BME280_pressure;Samples;Min_cycle;Max_cycle;Signal;HPM_P1;HPM_P2
2024/01/08 00:00:13;;;;;;;0.20;0.20;;;;;;;;;;4998154;28;20480;-85
2024/01/08 00:02:39;;;;;;;0.43;0.43;;;;;;;;;;4997959;28;20037;-84
2024/01/08 00:05:05;;;;;;;0.30;0.30;;;;;;;;;;5014356;28;20044;-85
2024/01/08 00:07:31;;;;;;;0.20;0.20;;;;;;;;;;5030563;28;20045;-84
2024/01/08 00:09:58;;;;;;;0.45;0.45;;;;;;;;;;5014164;28;20038;-84
2024/01/08 00:12:24;;;;;;;0.10;0.10;;;;;;;;;;4998223;28;20440;-85
2024/01/08 00:14:50;;;;;;;0.10;0.10;;;;;;;;;;5014069;28;20042;-85
2024/01/08 00:17:16;;;;;;;0.10;0.10;;;;;;;;;;5014152;28;20120;-85
2024/01/08 00:19:42;;;;;;;0.10;0.10;;;;;;;;;;5013956;28;20472;-84
2024/01/08 00:22:08;;;;;;;0.22;0.22;;;;;;;;;;5030438;28;20129;-84
2024/01/08 00:24:34;;;;;;;0.10;0.10;;;;;;;;;;5013966;28;20065;-84
2024/01/08 00:27:00;;;;;;;0.90;0.20;;;;;;;;;;4997627;28;20461;-84
2024/01/08 00:29:26;;;;;;;0.20;0.20;;;;;;;;;;5030433;28;20056;-84
2024/01/08 00:31:52;;;;;;;0.30;0.30;;;;;;;;;;5030283;28;20045;-85
2024/01/08 00:34:18;;;;;;;0.20;0.20;;;;;;;;;;4997523;28;20045;-84
2024/01/08 00:36:44;;;;;;;0.10;0.10;;;;;;;;;;5015040;28;20042;-85
2024/01/08 00:39:10;;;;;;;0.20;0.20;;;;;;;;;;5017624;28;20083;-84
2024/01/08 00:41:36;;;;;;;0.10;0.10;;;;;;;;;;5001196;28;20045;-84
2024/01/08 00:44:02;;;;;;;0.38;0.38;;;;;;;;;;5001127;28;20176;-84
2024/01/08 00:46:28;;;;;;;0.10;0.10;;;;;;;;;;5001543;28;20400;-85
2024/01/08 00:48:56;;;;;;;0.20;0.20;;;;;;;;;;5017609;28;20041;-84
2024/01/08 00:51:22;;;;;;;0.20;0.20;;;;;;;;;;5017103;28;20130;-84
2024/01/08 00:53:48;;;;;;;0.10;0.10;;;;;;;;;;5017211;28;20038;-85
2024/01/08 00:56:15;;;;;;;0.10;0.10;;;;;;;;;;5016933;28;20123;-85
2024/01/08 00:58:43;;;;;;;0.10;0.10;;;;;;;;;;5033601;28;20103;-85
2024/01/08 01:01:10;;;;;;;0.10;0.10;;;;;;;;;;5001105;28;20149;-84
2024/01/08 01:03:36;;;;;;;0.32;0.28;;;;;;;;;;5001115;28;20068;-84
2024/01/08 01:06:02;;;;;;;0.10;0.10;;;;;;;;;;5017216;28;20488;-84
2024/01/08 01:08:28;;;;;;;0.20;0.20;;;;;;;;;;5001103;28;20186;-84
2024/01/08 01:10:54;;;;;;;0.47;0.47;;;;;;;;;;5033449;28;20216;-84
2024/01/08 01:13:20;;;;;;;0.40;0.40;;;;;;;;;;5033361;28;20120;-84
2024/01/08 01:15:47;;;;;;;0.20;0.20;;;;;;;;;;5000618;28;20218;-84
2024/01/08 01:18:13;;;;;;;0.10;0.10;;;;;;;;;;5016898;28;20037;-84
2024/01/08 01:20:39;;;;;;;0.10;0.10;;;;;;;;;;5016692;28;20041;-84
2024/01/08 01:23:05;;;;;;;1.20;1.10;;;;;;;;;;5017004;28;20068;-84
2024/01/08 01:25:31;;;;;;;0.10;0.10;;;;;;;;;;5016937;28;20556;-84
2024/01/08 01:27:57;;;;;;;0.20;0.20;;;;;;;;;;5000490;28;20041;-85
2024/01/08 01:30:23;;;;;;;0.10;0.10;;;;;;;;;;5016607;28;20125;-84
2024/01/08 01:32:49;;;;;;;0.22;0.20;;;;;;;;;;5000242;28;20040;-85
2024/01/08 01:35:15;;;;;;;0.10;0.10;;;;;;;;;;5016528;28;20045;-85
2024/01/08 01:37:42;;;;;;;0.20;0.20;;;;;;;;;;5016510;28;20037;-85
2024/01/08 01:40:08;;;;;;;0.10;0.10;;;;;;;;;;5016532;28;20045;-84
2024/01/08 01:42:34;;;;;;;1.77;0.40;;;;;;;;;;5000103;28;20037;-84
2024/01/08 01:45:00;;;;;;;0.10;0.10;;;;;;;;;;5016639;28;20037;-84
2024/01/08 01:47:26;;;;;;;0.30;0.30;;;;;;;;;;5016009;28;20045;-85
2024/01/08 01:49:53;;;;;;;0.10;0.10;;;;;;;;;;5016207;28;20136;-85
2024/01/08 01:52:20;;;;;;;0.20;0.20;;;;;;;;;;4999904;28;20045;-85
2024/01/08 01:54:46;;;;;;;0.30;0.30;;;;;;;;;;5016304;28;20512;-85
2024/01/08 01:57:12;;;;;;;0.30;0.30;;;;;;;;;;4999737;28;20049;-85
2024/01/08 01:59:38;;;;;;;0.10;0.10;;;;;;;;;;5016045;28;20049;-85
2024/01/08 02:02:05;;;;;;;0.20;0.20;;;;;;;;;;4999858;28;20485;-85
2024/01/08 02:04:31;;;;;;;0.10;0.10;;;;;;;;;;4999883;28;20125;-85
2024/01/08 02:06:57;;;;;;;0.50;0.50;;;;;;;;;;5015929;28;20056;-85
2024/01/08 02:09:23;;;;;;;0.10;0.10;;;;;;;;;;4999534;28;20099;-84
2024/01/08 02:11:49;;;;;;;0.28;0.28;;;;;;;;;;5015574;28;20042;-85
2024/01/08 02:14:15;;;;;;;0.10;0.10;;;;;;;;;;5015833;28;20099;-84
2024/01/08 02:16:44;;;;;;;0.10;0.10;;;;;;;;;;4999590;28;20511;-86
2024/01/08 02:19:13;;;;;;;0.40;0.40;;;;;;;;;;4999646;28;20045;-85
2024/01/08 02:21:40;;;;;;;0.10;0.10;;;;;;;;;;4999317;28;20084;-84
2024/01/08 02:24:06;;;;;;;0.20;0.20;;;;;;;;;;5015655;28;20045;-84
2024/01/08 02:26:33;;;;;;;0.20;0.20;;;;;;;;;;5032072;28;20065;-84
2024/01/08 02:28:59;;;;;;;0.25;0.25;;;;;;;;;;5015828;28;20056;-84
2024/01/08 02:31:27;;;;;;;0.17;0.17;;;;;;;;;;4999419;28;20045;-85
2024/01/08 02:33:53;;;;;;;0.10;0.10;;;;;;;;;;4998966;28;20048;-85
2024/01/08 02:36:19;;;;;;;0.38;0.38;;;;;;;;;;5015380;28;20099;-85
2024/01/08 02:38:45;;;;;;;0.40;0.40;;;;;;;;;;5015295;28;20501;-85
2024/01/08 02:41:11;;;;;;;0.10;0.10;;;;;;;;;;5015238;28;20091;-85
2024/01/08 02:43:37;;;;;;;0.30;0.30;;;;;;;;;;5015312;28;20053;-86
2024/01/08 02:46:03;;;;;;;0.63;0.63;;;;;;;;;;5031813;28;20046;-84
2024/01/08 02:48:29;;;;;;;1.23;1.15;;;;;;;;;;4999015;28;20037;-85
2024/01/08 02:50:55;;;;;;;0.10;0.10;;;;;;;;;;5015082;28;20077;-85
2024/01/08 02:53:21;;;;;;;0.20;0.20;;;;;;;;;;5015265;28;20092;-85
2024/01/08 02:55:49;;;;;;;0.10;0.10;;;;;;;;;;5014698;28;20505;-85
2024/01/08 02:58:15;;;;;;;0.10;0.10;;;;;;;;;;5015006;28;20056;-85
2024/01/08 03:00:41;;;;;;;0.30;0.30;;;;;;;;;;4998030;28;20048;-85
2024/01/08 03:03:08;;;;;;;0.20;0.20;;;;;;;;;;5014952;28;20085;-85
2024/01/08 03:05:34;;;;;;;0.68;0.68;;;;;;;;;;5031469;28;20033;-85
2024/01/08 03:08:00;;;;;;;0.20;0.20;;;;;;;;;;4998451;28;20061;-85
2024/01/08 03:10:26;;;;;;;0.32;0.32;;;;;;;;;;5015100;28;20124;-85
2024/01/08 03:12:54;;;;;;;0.80;0.80;;;;;;;;;;4998507;28;20091;-84
2024/01/08 03:15:22;;;;;;;0.20;0.20;;;;;;;;;;4998682;28;20087;-84
2024/01/08 03:17:48;;;;;;;0.28;0.28;;;;;;;;;;4998833;28;20420;-85
2024/01/08 03:20:14;;;;;;;0.20;0.20;;;;;;;;;;4998882;28;20401;-85
2024/01/08 03:22:40;;;;;;;0.10;0.10;;;;;;;;;;5014960;28;20045;-85
2024/01/08 03:25:06;;;;;;;0.10;0.10;;;;;;;;;;5014954;28;20041;-84
2024/01/08 03:27:32;;;;;;;0.25;0.17;;;;;;;;;;5014687;28;20045;-85
2024/01/08 03:29:58;;;;;;;0.10;0.10;;;;;;;;;;4998060;28;20048;-85
2024/01/08 03:32:24;;;;;;;0.30;0.30;;;;;;;;;;5031211;28;20041;-84
2024/01/08 03:34:50;;;;;;;0.10;0.10;;;;;;;;;;5014468;28;20451;-84
2024/01/08 03:37:16;;;;;;;0.20;0.20;;;;;;;;;;4998303;28;20037;-85
2024/01/08 03:39:43;;;;;;;0.25;0.25;;;;;;;;;;4997898;28;20041;-84
2024/01/08 03:42:09;;;;;;;0.30;0.30;;;;;;;;;;5030833;28;20126;-85
2024/01/08 03:44:35;;;;;;;0.10;0.10;;;;;;;;;;5031025;28;20126;-84
2024/01/08 03:47:01;;;;;;;0.10;0.10;;;;;;;;;;4997899;28;20055;-85
2024/01/08 03:49:28;;;;;;;0.20;0.20;;;;;;;;;;5014202;28;20136;-84
2024/01/08 03:51:54;;;;;;;0.10;0.10;;;;;;;;;;5014432;28;20111;-84
2024/01/08 03:54:20;;;;;;;0.15;0.15;;;;;;;;;;5014272;28;20073;-84
2024/01/08 03:56:46;;;;;;;0.20;0.20;;;;;;;;;;4997970;28;20085;-84
2024/01/08 03:59:13;;;;;;;0.20;0.20;;;;;;;;;;5014166;28;20511;-84
2024/01/08 04:01:44;;;;;;;0.30;0.30;;;;;;;;;;5014350;28;20083;-84
2024/01/08 04:04:10;;;;;;;0.10;0.10;;;;;;;;;;4998219;28;20096;-84
2024/01/08 04:06:36;;;;;;;0.20;0.20;;;;;;;;;;5014672;28;20443;-85
2024/01/08 04:09:02;;;;;;;0.45;0.45;;;;;;;;;;4997949;28;20037;-84
2024/01/08 04:11:29;;;;;;;0.10;0.10;;;;;;;;;;5000289;28;20033;-84
2024/01/08 04:13:55;;;;;;;0.10;0.10;;;;;;;;;;5001751;28;20053;-84
2024/01/08 04:16:21;;;;;;;0.20;0.20;;;;;;;;;;5018191;28;20040;-84
2024/01/08 04:18:47;;;;;;;1.50;1.05;;;;;;;;;;5001583;28;20556;-84
2024/01/08 04:21:17;;;;;;;0.20;0.20;;;;;;;;;;5018009;28;20044;-85
2024/01/08 04:23:43;;;;;;;0.25;0.25;;;;;;;;;;5001605;28;20045;-85
2024/01/08 04:26:20;;;;;;;0.15;0.15;;;;;;;;;;5018034;28;20053;-84
2024/01/08 04:28:47;;;;;;;0.15;0.15;;;;;;;;;;5001842;28;20048;-84
2024/01/08 04:31:19;;;;;;;0.15;0.15;;;;;;;;;;5034088;28;20507;-84
2024/01/08 04:33:46;;;;;;;0.30;0.30;;;;;;;;;;5034137;28;20057;-84
2024/01/08 04:36:13;;;;;;;0.30;0.30;;;;;;;;;;5017919;28;20287;-85
2024/01/08 04:38:39;;;;;;;0.10;0.10;;;;;;;;;;5034165;28;20053;-84
2024/01/08 04:41:05;;;;;;;0.10;0.10;;;;;;;;;;5033807;28;20034;-84
2024/01/08 04:43:31;;;;;;;0.20;0.20;;;;;;;;;;5017594;28;20087;-84
2024/01/08 04:45:57;;;;;;;0.32;0.32;;;;;;;;;;5033857;28;20049;-84
2024/01/08 04:48:23;;;;;;;0.10;0.10;;;;;;;;;;5033846;28;20070;-84
2024/01/08 04:50:49;;;;;;;0.10;0.10;;;;;;;;;;5001017;28;20121;-84
2024/01/08 04:53:15;;;;;;;0.20;0.20;;;;;;;;;;5001275;28;20401;-84
2024/01/08 04:55:41;;;;;;;0.10;0.10;;;;;;;;;;5017292;28;20528;-84
2024/01/08 04:58:08;;;;;;;0.10;0.10;;;;;;;;;;5017283;28;20132;-84
2024/01/08 05:00:34;;;;;;;0.13;0.13;;;;;;;;;;5017187;28;20087;-84
2024/01/08 05:03:00;;;;;;;0.10;0.10;;;;;;;;;;5000943;28;20037;-85
2024/01/08 05:05:26;;;;;;;0.10;0.10;;;;;;;;;;5017240;28;20037;-85
2024/01/08 05:07:52;;;;;;;0.20;0.20;;;;;;;;;;5033484;28;20037;-84
2024/01/08 05:10:18;;;;;;;1.40;1.40;;;;;;;;;;5033461;28;20052;-84
2024/01/08 05:12:44;;;;;;;0.10;0.10;;;;;;;;;;5000763;28;20485;-84
2024/01/08 05:15:10;;;;;;;0.10;0.10;;;;;;;;;;5033489;28;20041;-85
2024/01/08 05:17:37;;;;;;;0.10;0.10;;;;;;;;;;5017043;28;20037;-84
2024/01/08 05:20:03;;;;;;;0.30;0.30;;;;;;;;;;5033263;28;20507;-84
2024/01/08 05:22:29;;;;;;;0.43;0.40;;;;;;;;;;5000143;28;20037;-84
2024/01/08 05:24:56;;;;;;;0.10;0.10;;;;;;;;;;5033479;28;20496;-84
2024/01/08 05:27:22;;;;;;;0.10;0.10;;;;;;;;;;5000805;28;20422;-85
2024/01/08 05:29:48;;;;;;;0.10;0.10;;;;;;;;;;5017048;28;20128;-85
2024/01/08 05:32:14;;;;;;;0.57;0.57;;;;;;;;;;5033419;28;20049;-85
2024/01/08 05:34:41;;;;;;;0.10;0.10;;;;;;;;;;5016568;28;20048;-85
2024/01/08 05:37:07;;;;;;;0.30;0.30;;;;;;;;;;5000536;28;20041;-84
2024/01/08 05:39:33;;;;;;;0.30;0.30;;;;;;;;;;5000496;28;20044;-84
2024/01/08 05:42:00;;;;;;;0.10;0.10;;;;;;;;;;5000273;28;20041;-84
2024/01/08 05:44:26;;;;;;;0.10;0.10;;;;;;;;;;5000457;28;20045;-84
2024/01/08 05:46:53;;;;;;;0.10;0.10;;;;;;;;;;5016520;28;20060;-84
2024/01/08 05:49:19;;;;;;;0.13;0.13;;;;;;;;;;5016459;28;20037;-84
2024/01/08 05:51:45;;;;;;;0.10;0.10;;;;;;;;;;5016254;28;20041;-84
2024/01/08 05:54:11;;;;;;;0.20;0.20;;;;;;;;;;5032644;28;20041;-85
2024/01/08 05:56:37;;;;;;;0.20;0.20;;;;;;;;;;5015960;28;20064;-84
2024/01/08 05:59:03;;;;;;;0.45;0.45;;;;;;;;;;4999821;28;20090;-83
2024/01/08 06:01:29;;;;;;;0.13;0.13;;;;;;;;;;5032417;28;20485;-84
2024/01/08 06:03:55;;;;;;;0.10;0.10;;;;;;;;;;5016005;28;20041;-84
2024/01/08 06:06:22;;;;;;;0.10;0.10;;;;;;;;;;4999589;28;20052;-83
2024/01/08 06:08:48;;;;;;;0.10;0.10;;;;;;;;;;5032490;28;20124;-83
2024/01/08 06:11:14;;;;;;;0.10;0.10;;;;;;;;;;5000014;28;20100;-84
2024/01/08 06:13:40;;;;;;;0.63;0.63;;;;;;;;;;5015794;28;20128;-84
2024/01/08 06:16:06;;;;;;;0.10;0.10;;;;;;;;;;4999498;28;20124;-84
2024/01/08 06:18:33;;;;;;;0.10;0.10;;;;;;;;;;5015932;28;20103;-84
2024/01/08 06:20:59;;;;;;;0.10;0.10;;;;;;;;;;4999321;28;20128;-84
2024/01/08 06:23:25;;;;;;;0.10;0.10;;;;;;;;;;4999543;28;20312;-83
2024/01/08 06:25:51;;;;;;;0.20;0.20;;;;;;;;;;4999411;28;20084;-84
2024/01/08 06:28:17;;;;;;;0.32;0.32;;;;;;;;;;5015740;28;20496;-84
2024/01/08 06:30:44;;;;;;;0.10;0.10;;;;;;;;;;5015646;28;20515;-84
2024/01/08 06:33:10;;;;;;;0.20;0.20;;;;;;;;;;5015326;28;20505;-83
2024/01/08 06:35:36;;;;;;;0.20;0.20;;;;;;;;;;5014547;28;20041;-84
2024/01/08 06:38:02;;;;;;;0.10;0.10;;;;;;;;;;4999145;28;20049;-84
2024/01/08 06:40:28;;;;;;;0.80;0.52;;;;;;;;;;5015373;28;20548;-83
2024/01/08 06:42:54;;;;;;;0.10;0.10;;;;;;;;;;5031699;28;20137;-84
2024/01/08 06:45:20;;;;;;;0.20;0.20;;;;;;;;;;5031805;28;20124;-84
2024/01/08 06:47:46;;;;;;;0.10;0.10;;;;;;;;;;4999079;28;20087;-83
2024/01/08 06:50:12;;;;;;;0.20;0.20;;;;;;;;;;5015112;28;20045;-84
2024/01/08 06:52:38;;;;;;;0.15;0.15;;;;;;;;;;5015184;28;20048;-84
2024/01/08 06:55:04;;;;;;;0.35;0.35;;;;;;;;;;5015058;28;20503;-84
2024/01/08 06:57:30;;;;;;;0.10;0.10;;;;;;;;;;5014897;28;20140;-84
2024/01/08 06:59:56;;;;;;;0.10;0.10;;;;;;;;;;4998686;28;20044;-84
2024/01/08 07:02:22;;;;;;;0.10;0.10;;;;;;;;;;4998991;28;20131;-84
2024/01/08 07:04:48;;;;;;;0.10;0.10;;;;;;;;;;4998714;28;20045;-84
2024/01/08 07:07:14;;;;;;;0.10;0.10;;;;;;;;;;5031331;28;20551;-84
2024/01/08 07:09:40;;;;;;;0.10;0.10;;;;;;;;;;4998777;28;20713;-84
2024/01/08 07:12:08;;;;;;;0.10;0.10;;;;;;;;;;4998822;28;20041;-84
2024/01/08 07:14:34;;;;;;;0.20;0.20;;;;;;;;;;4998820;28;20060;-84
2024/01/08 07:17:00;;;;;;;0.10;0.10;;;;;;;;;;4998410;28;20044;-84
2024/01/08 07:19:26;;;;;;;0.10;0.10;;;;;;;;;;5015019;28;20122;-85
2024/01/08 07:21:52;;;;;;;0.28;0.20;;;;;;;;;;5031003;28;20041;-85
2024/01/08 07:24:18;;;;;;;0.10;0.10;;;;;;;;;;5014806;28;20360;-85
2024/01/08 07:26:44;;;;;;;0.20;0.20;;;;;;;;;;4998590;28;20045;-85
2024/01/08 07:29:10;;;;;;;0.10;0.10;;;;;;;;;;5014540;28;20401;-85
2024/01/08 07:31:38;;;;;;;0.10;0.10;;;;;;;;;;4998162;28;20041;-84
2024/01/08 07:34:04;;;;;;;0.47;0.47;;;;;;;;;;4998457;28;20060;-84
2024/01/08 07:36:31;;;;;;;0.20;0.20;;;;;;;;;;5014569;28;20045;-85
2024/01/08 07:38:57;;;;;;;0.47;0.47;;;;;;;;;;4998376;28;20627;-85
2024/01/08 07:41:23;;;;;;;0.50;0.50;;;;;;;;;;4998047;28;20048;-85
2024/01/08 07:43:49;;;;;;;0.28;0.28;;;;;;;;;;5014454;28;20037;-84
2024/01/08 07:46:15;;;;;;;0.10;0.10;;;;;;;;;;4997738;28;20056;-84
2024/01/08 07:48:41;;;;;;;0.28;0.28;;;;;;;;;;4998092;28;20132;-84
2024/01/08 07:51:07;;;;;;;0.50;0.50;;;;;;;;;;4997947;28;20501;-85
2024/01/08 07:53:33;;;;;;;0.38;0.38;;;;;;;;;;5014180;28;20129;-84
2024/01/08 07:55:59;;;;;;;0.22;0.22;;;;;;;;;;5014087;28;20054;-85
2024/01/08 07:58:25;;;;;;;4.07;0.30;;;;;;;;;;4998068;28;20079;-83
2024/01/08 08:00:51;;;;;;;0.17;0.17;;;;;;;;;;4997961;28;20042;-85
2024/01/08 08:03:17;;;;;;;0.10;0.10;;;;;;;;;;5014569;28;20044;-87
2024/01/08 08:05:44;;;;;;;0.40;0.40;;;;;;;;;;5014602;28;20072;-87
2024/01/08 08:08:10;;;;;;;0.10;0.10;;;;;;;;;;5014271;28;20041;-86
2024/01/08 08:10:36;;;;;;;0.20;0.20;;;;;;;;;;4997798;28;20124;-88
2024/01/08 08:13:02;;;;;;;2.90;0.32;;;;;;;;;;4998046;28;20418;-87
2024/01/08 08:15:28;;;;;;;0.30;0.30;;;;;;;;;;4997597;28;20111;-90
2024/01/08 08:17:54;;;;;;;0.10;0.10;;;;;;;;;;4997530;28;20127;-86
2024/01/08 08:20:20;;;;;;;0.45;0.45;;;;;;;;;;5014523;28;20495;-88
2024/01/08 08:22:46;;;;;;;0.10;0.10;;;;;;;;;;5013949;28;20033;-89
2024/01/08 08:25:12;;;;;;;0.22;0.22;;;;;;;;;;4998569;28;20081;-88
2024/01/08 08:27:38;;;;;;;0.10;0.10;;;;;;;;;;4998243;28;20064;-88
2024/01/08 08:30:06;;;;;;;0.17;0.17;;;;;;;;;;5014297;28;20056;-86
2024/01/08 08:32:32;;;;;;;0.30;0.30;;;;;;;;;;5014135;28;20054;-86
2024/01/08 08:34:59;;;;;;;0.20;0.20;;;;;;;;;;5019921;28;20037;-86
2024/01/08 08:37:25;;;;;;;0.32;0.20;;;;;;;;;;5004596;28;20116;-85
2024/01/08 08:39:51;;;;;;;0.10;0.10;;;;;;;;;;5002646;28;20061;-91
2024/01/08 08:42:17;;;;;;;0.30;0.30;;;;;;;;;;4994420;28;20056;-86
2024/01/08 08:44:43;;;;;;;0.20;0.20;;;;;;;;;;4994224;28;20375;-85
2024/01/08 08:47:10;;;;;;;0.20;0.20;;;;;;;;;;4977788;28;20478;-86
2024/01/08 08:49:36;;;;;;;0.10;0.10;;;;;;;;;;4985974;28;20094;-85
2024/01/08 08:52:02;;;;;;;0.25;0.25;;;;;;;;;;4997331;28;20044;-86
2024/01/08 08:54:28;;;;;;;0.10;0.10;;;;;;;;;;5013146;28;20523;-84
2024/01/08 08:56:55;;;;;;;0.30;0.30;;;;;;;;;;4997141;28;20046;-86
2024/01/08 08:59:21;;;;;;;0.20;0.20;;;;;;;;;;5000444;28;20041;-85
2024/01/08 09:01:52;;;;;;;0.30;0.20;;;;;;;;;;5000620;28;20037;-86
2024/01/08 09:04:18;;;;;;;0.20;0.20;;;;;;;;;;5000966;28;20071;-85
2024/01/08 09:06:45;;;;;;;0.10;0.10;;;;;;;;;;5017079;28;20567;-85
2024/01/08 09:09:12;;;;;;;0.10;0.10;;;;;;;;;;5016707;28;20072;-86
2024/01/08 09:11:39;;;;;;;0.17;0.17;;;;;;;;;;5000718;28;20468;-86
2024/01/08 09:14:07;;;;;;;0.10;0.10;;;;;;;;;;5016686;28;20054;-86
2024/01/08 09:16:33;;;;;;;0.20;0.20;;;;;;;;;;5000765;28;20037;-86
2024/01/08 09:19:00;;;;;;;0.60;0.60;;;;;;;;;;5016345;28;20136;-87
2024/01/08 09:21:26;;;;;;;0.68;0.32;;;;;;;;;;5016920;28;20038;-92
2024/01/08 09:23:53;;;;;;;0.10;0.10;;;;;;;;;;5016927;28;20392;-84
2024/01/08 09:26:19;;;;;;;0.10;0.10;;;;;;;;;;5016528;28;20045;-85
2024/01/08 09:28:45;;;;;;;0.20;0.20;;;;;;;;;;5016533;28;20045;-85
2024/01/08 09:31:11;;;;;;;0.40;0.30;;;;;;;;;;5000370;28;20106;-85
2024/01/08 09:33:37;;;;;;;0.25;0.25;;;;;;;;;;5000195;28;20493;-86
2024/01/08 09:36:04;;;;;;;0.10;0.10;;;;;;;;;;4999958;28;20076;-88
2024/01/08 09:38:30;;;;;;;0.10;0.10;;;;;;;;;;5000158;28;20205;-86
2024/01/08 09:40:56;;;;;;;0.47;0.47;;;;;;;;;;4999968;28;20178;-85
2024/01/08 09:43:22;;;;;;;0.32;0.30;;;;;;;;;;5000185;28;20073;-87
2024/01/08 09:45:55;;;;;;;0.28;0.28;;;;;;;;;;4999975;28;20042;-84
2024/01/08 09:48:21;;;;;;;0.20;0.20;;;;;;;;;;5032818;28;20099;-88
2024/01/08 09:50:47;;;;;;;0.10;0.10;;;;;;;;;;4988046;28;20045;-88
2024/01/08 09:53:13;;;;;;;0.10;0.10;;;;;;;;;;4996798;28;20045;-88
2024/01/08 09:55:39;;;;;;;0.45;0.45;;;;;;;;;;4992807;28;20049;-87
2024/01/08 09:58:06;;;;;;;0.30;0.30;;;;;;;;;;5016341;28;20128;-87
2024/01/08 10:00:33;;;;;;;0.28;0.28;;;;;;;;;;4999666;28;20044;-88
2024/01/08 10:02:59;;;;;;;0.30;0.30;;;;;;;;;;4999997;28;20046;-87
2024/01/08 10:05:28;;;;;;;0.20;0.20;;;;;;;;;;5032565;28;20060;-87
2024/01/08 10:07:54;;;;;;;1.00;0.98;;;;;;;;;;4999655;28;20508;-87
2024/01/08 10:10:22;;;;;;;0.30;0.30;;;;;;;;;;5015441;28;20493;-87
2024/01/08 10:12:49;;;;;;;0.22;0.22;;;;;;;;;;4999971;28;20068;-87
2024/01/08 10:15:18;;;;;;;0.68;0.68;;;;;;;;;;5015638;28;20056;-88
2024/01/08 10:17:47;;;;;;;0.10;0.10;;;;;;;;;;5000001;28;20034;-87
2024/01/08 10:20:14;;;;;;;0.68;0.63;;;;;;;;;;5015463;28;20034;-86
2024/01/08 10:22:40;;;;;;;0.10;0.10;;;;;;;;;;5015940;28;20034;-86
2024/01/08 10:25:06;;;;;;;0.10;0.10;;;;;;;;;;5015405;28;20037;-86
2024/01/08 10:27:32;;;;;;;0.90;0.90;;;;;;;;;;5015659;28;20408;-86
2024/01/08 10:29:58;;;;;;;0.10;0.10;;;;;;;;;;4999007;28;20119;-88
2024/01/08 10:32:24;;;;;;;0.50;0.50;;;;;;;;;;4999588;28;20056;-87
2024/01/08 10:34:51;;;;;;;0.20;0.20;;;;;;;;;;4998821;28;20083;-85
2024/01/08 10:37:17;;;;;;;0.57;0.57;;;;;;;;;;5015665;28;20238;-86
2024/01/08 10:39:43;;;;;;;0.10;0.10;;;;;;;;;;4998606;28;20041;-86
2024/01/08 10:42:12;;;;;;;0.30;0.30;;;;;;;;;;5015330;28;20037;-85
2024/01/08 10:44:38;;;;;;;0.20;0.20;;;;;;;;;;4998671;28;20492;-86
2024/01/08 10:47:06;;;;;;;0.10;0.10;;;;;;;;;;5012221;28;20036;-85
2024/01/08 10:49:32;;;;;;;0.10;0.10;;;;;;;;;;5033062;28;20051;-86
2024/01/08 10:52:01;;;;;;;0.85;0.85;;;;;;;;;;5018196;28;20129;-82
2024/01/08 10:54:37;;;;;;;0.10;0.10;;;;;;;;;;5035350;28;20447;-84
2024/01/08 10:57:04;;;;;;;0.13;0.13;;;;;;;;;;4995406;28;20046;-90
2024/01/08 10:59:31;;;;;;;0.10;0.10;;;;;;;;;;5011648;28;20038;-85
2024/01/08 11:01:58;;;;;;;0.10;0.10;;;;;;;;;;4995389;28;20038;-86
2024/01/08 11:04:24;;;;;;;0.30;0.30;;;;;;;;;;4995349;28;20046;-85
2024/01/08 11:06:50;;;;;;;0.50;0.50;;;;;;;;;;4979234;28;20042;-84
2024/01/08 11:09:31;;;;;;;0.40;0.20;;;;;;;;;;4996729;28;20188;-90
2024/01/08 11:11:57;;;;;;;0.25;0.25;;;;;;;;;;4998686;28;20488;-85
2024/01/08 11:14:24;;;;;;;0.20;0.20;;;;;;;;;;4998689;28;20088;-85
2024/01/08 11:16:50;;;;;;;0.10;0.10;;;;;;;;;;4998435;28;20396;-85
2024/01/08 11:19:19;;;;;;;0.40;0.40;;;;;;;;;;5014783;28;20045;-85
2024/01/08 11:21:48;;;;;;;0.63;0.63;;;;;;;;;;5030619;28;20097;-89
2024/01/08 11:24:15;;;;;;;0.10;0.10;;;;;;;;;;5014691;28;20042;-83
2024/01/08 11:26:41;;;;;;;0.43;0.43;;;;;;;;;;4998454;28;20422;-84
2024/01/08 11:29:10;;;;;;;0.50;0.50;;;;;;;;;;5014735;28;20044;-87
2024/01/08 11:31:36;;;;;;;0.20;0.20;;;;;;;;;;5014833;28;20041;-87
2024/01/08 11:34:15;;;;;;;0.30;0.30;;;;;;;;;;5030769;28;20033;-86
2024/01/08 11:36:47;;;;;;;0.10;0.10;;;;;;;;;;5014863;28;20038;-86
2024/01/08 11:39:17;;;;;;;1.52;0.25;;;;;;;;;;4998975;28;20182;-87
2024/01/08 11:41:43;;;;;;;0.22;0.22;;;;;;;;;;4998060;28;20057;-87
2024/01/08 11:44:09;;;;;;;0.15;0.15;;;;;;;;;;5014875;28;20037;-86
2024/01/08 11:46:35;;;;;;;0.10;0.10;;;;;;;;;;5014869;28;20067;-87
2024/01/08 11:49:05;;;;;;;6.22;0.93;;;;;;;;;;4998483;28;20457;-89
2024/01/08 11:51:35;;;;;;;0.30;0.30;;;;;;;;;;4998611;28;20047;-87
2024/01/08 11:54:02;;;;;;;0.10;0.10;;;;;;;;;;4997905;28;20046;-87
2024/01/08 11:56:29;;;;;;;0.20;0.20;;;;;;;;;;4997976;28;20448;-87
2024/01/08 11:58:55;;;;;;;0.75;0.50;;;;;;;;;;5030661;28;20077;-87
2024/01/08 12:01:22;;;;;;;0.10;0.10;;;;;;;;;;5014305;28;20081;-86
2024/01/08 12:03:48;;;;;;;0.20;0.20;;;;;;;;;;4997998;28;20045;-87
2024/01/08 12:06:14;;;;;;;0.47;0.15;;;;;;;;;;5014353;28;20437;-87
2024/01/08 12:08:40;;;;;;;0.10;0.10;;;;;;;;;;5014577;28;20335;-87
2024/01/08 12:11:08;;;;;;;0.17;0.17;;;;;;;;;;4998290;28;20076;-87
2024/01/08 12:13:34;;;;;;;0.10;0.10;;;;;;;;;;5014096;28;20542;-87
2024/01/08 12:16:01;;;;;;;0.20;0.20;;;;;;;;;;5014352;28;20041;-87
2024/01/08 12:18:27;;;;;;;0.30;0.30;;;;;;;;;;4998082;28;20087;-87
2024/01/08 12:20:53;;;;;;;0.20;0.20;;;;;;;;;;4997708;28;20037;-87
2024/01/08 12:23:19;;;;;;;0.10;0.10;;;;;;;;;;4997851;28;20045;-88
2024/01/08 12:25:49;;;;;;;0.22;0.22;;;;;;;;;;4997941;28;20485;-87
2024/01/08 12:28:15;;;;;;;0.20;0.20;;;;;;;;;;4998155;28;20052;-88
2024/01/08 12:30:41;;;;;;;0.60;0.25;;;;;;;;;;4998107;28;20042;-85
2024/01/08 12:33:08;;;;;;;0.25;0.25;;;;;;;;;;5014197;28;20160;-85
2024/01/08 12:35:37;;;;;;;0.22;0.20;;;;;;;;;;5020865;28;20048;-84
2024/01/08 12:38:03;;;;;;;0.20;0.20;;;;;;;;;;5003578;28;20037;-85
2024/01/08 12:40:29;;;;;;;0.10;0.10;;;;;;;;;;4981947;28;20558;-85
2024/01/08 12:42:55;;;;;;;0.10;0.10;;;;;;;;;;4981797;28;20077;-85
2024/01/08 12:45:21;;;;;;;0.15;0.13;;;;;;;;;;5014502;28;20046;-85
2024/01/08 12:47:48;;;;;;;0.57;0.15;;;;;;;;;;5012105;28;20045;-85
2024/01/08 12:50:14;;;;;;;0.10;0.10;;;;;;;;;;5017369;28;20034;-85
2024/01/08 12:52:40;;;;;;;0.20;0.20;;;;;;;;;;5000961;28;20042;-84
2024/01/08 12:55:06;;;;;;;0.10;0.10;;;;;;;;;;5001053;28;20122;-85
2024/01/08 12:57:32;;;;;;;0.10;0.10;;;;;;;;;;5000693;28;20056;-85
2024/01/08 12:59:58;;;;;;;0.10;0.10;;;;;;;;;;5001048;28;20045;-85
2024/01/08 13:02:31;;;;;;;0.10;0.10;;;;;;;;;;5000637;28;20036;-84
2024/01/08 13:04:57;;;;;;;0.10;0.10;;;;;;;;;;5017282;28;20056;-85
2024/01/08 13:07:24;;;;;;;0.43;0.30;;;;;;;;;;5016410;28;20045;-85
2024/01/08 13:09:50;;;;;;;0.10;0.10;;;;;;;;;;5033326;28;20041;-85
2024/01/08 13:12:17;;;;;;;0.22;0.22;;;;;;;;;;5008668;28;20548;-86
2024/01/08 13:14:43;;;;;;;1.25;0.47;;;;;;;;;;4997575;28;20396;-87
2024/01/08 13:17:09;;;;;;;0.10;0.10;;;;;;;;;;4989183;28;20440;-85
2024/01/08 13:19:35;;;;;;;0.50;0.30;;;;;;;;;;5016791;28;20175;-85
2024/01/08 13:22:04;;;;;;;0.10;0.10;;;;;;;;;;5017208;28;20048;-86
2024/01/08 13:24:30;;;;;;;0.30;0.30;;;;;;;;;;5017561;28;20049;-85
2024/01/08 13:26:58;;;;;;;0.20;0.20;;;;;;;;;;5016744;28;20511;-86
2024/01/08 13:29:24;;;;;;;0.13;0.13;;;;;;;;;;5033258;28;20055;-85
2024/01/08 13:31:50;;;;;;;0.30;0.30;;;;;;;;;;5016381;28;20034;-86
2024/01/08 13:34:16;;;;;;;0.13;0.13;;;;;;;;;;5000219;28;20042;-89
2024/01/08 13:36:42;;;;;;;0.57;0.57;;;;;;;;;;5016670;28;20051;-86
2024/01/08 13:39:08;;;;;;;0.10;0.10;;;;;;;;;;5016805;28;20044;-87
2024/01/08 13:41:36;;;;;;;0.20;0.20;;;;;;;;;;5027347;28;20041;-86
2024/01/08 13:44:02;;;;;;;3.35;0.40;;;;;;;;;;5019832;28;20044;-86
2024/01/08 13:46:28;;;;;;;0.20;0.20;;;;;;;;;;5036467;28;20051;-84
2024/01/08 13:48:54;;;;;;;0.20;0.20;;;;;;;;;;5038115;28;20097;-86
2024/01/08 13:51:20;;;;;;;0.20;0.20;;;;;;;;;;5036422;28;20517;-88
2024/01/08 13:53:46;;;;;;;0.10;0.10;;;;;;;;;;5020090;28;20041;-88
2024/01/08 13:56:12;;;;;;;0.10;0.10;;;;;;;;;;5019580;28;20409;-87
2024/01/08 13:58:39;;;;;;;0.10;0.10;;;;;;;;;;5036428;28;20045;-89
2024/01/08 14:01:05;;;;;;;0.20;0.20;;;;;;;;;;5036538;28;20041;-90
2024/01/08 14:03:31;;;;;;;0.10;0.10;;;;;;;;;;5036512;28;20036;-91
2024/01/08 14:05:57;;;;;;;3.25;1.48;;;;;;;;;;5036414;28;20136;-94
2024/01/08 14:08:23;;;;;;;0.10;0.10;;;;;;;;;;5021924;28;20037;-92
2024/01/08 14:10:50;;;;;;;0.30;0.30;;;;;;;;;;5034917;28;20040;-92
2024/01/08 14:13:16;;;;;;;0.10;0.10;;;;;;;;;;5020111;28;20037;-92
2024/01/08 14:15:42;;;;;;;0.10;0.10;;;;;;;;;;5036765;28;20128;-92
2024/01/08 14:18:08;;;;;;;0.30;0.30;;;;;;;;;;5020457;28;20036;-95
2024/01/08 14:20:34;;;;;;;0.15;0.15;;;;;;;;;;5021956;28;20041;-93
2024/01/08 14:23:00;;;;;;;0.32;0.32;;;;;;;;;;5020311;28;20364;-92
2024/01/08 14:25:26;;;;;;;0.25;0.25;;;;;;;;;;5018630;28;20048;-91
2024/01/08 14:27:53;;;;;;;0.30;0.30;;;;;;;;;;5001240;28;20041;-91
2024/01/08 14:30:19;;;;;;;0.93;0.38;;;;;;;;;;5017126;28;20054;-90
2024/01/08 14:32:46;;;;;;;0.60;0.60;;;;;;;;;;5001343;28;20052;-91
2024/01/08 14:35:12;;;;;;;0.75;0.75;;;;;;;;;;5000317;28;20037;-92
2024/01/08 14:37:39;;;;;;;0.10;0.10;;;;;;;;;;5000135;28;20186;-92